Terminal Aerodrome Forecast
Issued by NWS

Home | Current Version | Previous Version | Text Only | Print | Product List | Glossary On
Versions: 1 2 3 4 5 6 7 8 9 10 11 12 13 14
690
FTUS45 KPSR 192337
TAFIPL
TAF
KIPL 192337Z 2000/2024 13007KT P6SM FEW250
     FM200200 25014G21KT P6SM FEW060 BKN250
      TEMPO 2006/2010 27018G28KT FEW050=

USA.gov is the U.S. government's official web portal to all federal, state and local government web resources and services.